Terminal Aerodrome Forecast
Issued by NWS Paducah, KY

Home | Current Version | Previous Version | Text Only | Print | Product List | Glossary Off
Versions: 1 2 3 4 5 6 7 8 9 10 11 12 13 14 15 16 17 18 19 20 21 22 23 24 25

725
FTUS43 KPAH 101936 AAA
TAFPAH
TAF AMD
KPAH 101936Z 1020/1118 26010KT P6SM SCT030 OVC060
      TEMPO 1020/1024 5SM -SN BR OVC030
     FM110000 VRB06KT P6SM OVC030
     FM111500 04010KT P6SM SCT035=

USA.gov is the U.S. government's official web portal to all federal, state and local government web resources and services.